Time;durP1;ratioP1;P1;durP2;ratioP2;P2;SDS_P1;SDS_P2;PMS_P1;PMS_P2;Temp;Humidity;BMP_temperature;BMP_pressure;BME280_temperature;BME280_humidity;BME280_pressure;Samples;Min_cycle;Max_cycle;Signal;HPM_P1;HPM_P2
2022/08/06 00:02:20;;;;;;;4.63;4.23;;;;;;;12.18;100.00;102172.63;4955862;28;20458;-51
2022/08/06 00:04:55;;;;;;;5.47;5.07;;;;;;;12.13;100.00;102183.00;4956480;29;20435;-43
2022/08/06 00:07:25;;;;;;;5.00;4.67;;;;;;;12.09;100.00;102186.22;4955950;29;20793;-44
2022/08/06 00:09:57;;;;;;;4.30;4.10;;;;;;;12.03;100.00;102174.38;4961747;28;20586;-45
2022/08/06 00:12:30;;;;;;;4.93;4.53;;;;;;;12.00;100.00;102179.22;4972768;28;20455;-43
2022/08/06 00:15:00;;;;;;;4.67;4.37;;;;;;;11.97;100.00;102192.91;4972838;28;20442;-45
2022/08/06 00:17:27;;;;;;;4.90;4.60;;;;;;;11.95;100.00;102189.56;4975195;28;20427;-45
2022/08/06 00:19:59;;;;;;;4.50;4.30;;;;;;;11.94;100.00;102196.78;4974325;28;20475;-44
2022/08/06 00:22:27;;;;;;;4.47;4.27;;;;;;;11.93;100.00;102196.94;4974690;28;20980;-43
2022/08/06 00:24:58;;;;;;;4.07;3.87;;;;;;;11.93;100.00;102202.28;4974988;28;20526;-46
2022/08/06 00:27:25;;;;;;;7.27;4.27;;;;;;;11.90;100.00;102200.78;4974738;28;20450;-44
2022/08/06 00:30:06;;;;;;;4.40;4.10;;;;;;;11.89;100.00;102201.78;4974722;28;20876;-45
2022/08/06 00:32:47;;;;;;;4.90;4.60;;;;;;;11.88;100.00;102208.16;4974437;28;20462;-48
2022/08/06 00:35:19;;;;;;;4.17;3.97;;;;;;;11.88;100.00;102208.16;4958086;28;20436;-44
2022/08/06 00:37:50;;;;;;;4.80;4.60;;;;;;;11.89;100.00;102212.47;4953931;28;20518;-44
2022/08/06 00:40:29;;;;;;;4.77;4.47;;;;;;;11.91;100.00;102215.84;4955437;29;20427;-46
2022/08/06 00:42:57;;;;;;;5.23;4.40;;;;;;;11.92;100.00;102225.50;4955523;28;20507;-44
2022/08/06 00:45:33;;;;;;;5.97;4.30;;;;;;;11.91;100.00;102228.34;4973432;23;20431;-46
2022/08/06 00:48:12;;;;;;;5.00;4.60;;;;;;;11.90;100.00;102229.34;4993160;28;20527;-41
2022/08/06 00:51:00;;;;;;;7.90;4.50;;;;;;;11.89;100.00;102233.84;4988587;28;20426;-41
2022/08/06 00:53:28;;;;;;;4.90;4.50;;;;;;;11.89;100.00;102228.50;4993849;28;20492;-41
2022/08/06 00:56:02;;;;;;;4.63;4.33;;;;;;;11.90;100.00;102234.69;4993907;28;21011;-45
2022/08/06 00:58:36;;;;;;;4.00;3.80;;;;;;;11.89;100.00;102241.03;4993327;28;20484;-41
2022/08/06 01:01:08;;;;;;;4.40;4.20;;;;;;;11.88;100.00;102236.72;4994043;28;20434;-43
2022/08/06 01:03:45;;;;;;;4.60;4.40;;;;;;;11.82;100.00;102248.91;4993915;28;20492;-43
2022/08/06 01:06:18;;;;;;;4.70;4.50;;;;;;;11.78;100.00;102252.06;4993597;28;20452;-43
2022/08/06 01:09:06;;;;;;;5.20;4.97;;;;;;;11.71;100.00;102251.91;4993266;28;20536;-41
2022/08/06 01:11:35;;;;;;;6.60;4.83;;;;;;;11.63;100.00;102246.53;4994001;28;20470;-41
2022/08/06 01:14:03;;;;;;;5.30;5.00;;;;;;;11.56;100.00;102259.72;4993724;28;20442;-43
2022/08/06 01:16:40;;;;;;;5.50;5.20;;;;;;;11.48;100.00;102254.38;4993630;28;20563;-41
2022/08/06 01:19:38;;;;;;;5.20;4.80;;;;;;;11.41;100.00;102252.56;4993105;28;20478;-42
2022/08/06 01:22:50;;;;;;;5.20;4.70;;;;;;;11.30;100.00;102259.03;4993024;28;20445;-42
2022/08/06 01:26:00;;;;;;;5.10;4.80;;;;;;;11.25;100.00;102263.19;4993395;28;20564;-41
2022/08/06 01:28:32;;;;;;;4.40;4.20;;;;;;;11.22;100.00;102271.53;4992967;28;20558;-41
2022/08/06 01:31:09;;;;;;;4.90;4.50;;;;;;;11.18;100.00;102268.34;4993306;28;20465;-42
2022/08/06 01:33:42;;;;;;;5.23;4.93;;;;;;;11.17;100.00;102272.00;4995528;28;20461;-41
2022/08/06 01:36:19;;;;;;;5.40;5.10;;;;;;;11.14;100.00;102269.66;5004315;28;20456;-42
2022/08/06 01:38:57;;;;;;;5.50;5.10;;;;;;;11.11;100.00;102278.84;5012275;28;20487;-41
2022/08/06 01:41:39;;;;;;;5.13;4.80;;;;;;;11.09;100.00;102277.34;5012685;28;20520;-41
2022/08/06 01:44:31;;;;;;;4.87;4.47;;;;;;;11.05;100.00;102274.16;5012455;28;20441;-42
2022/08/06 01:47:03;;;;;;;5.63;5.33;;;;;;;11.02;100.00;102282.47;5012279;28;20460;-41
2022/08/06 01:49:36;;;;;;;4.90;4.60;;;;;;;10.97;100.00;102274.13;5012127;28;20527;-44
2022/08/06 01:52:26;;;;;;;5.50;5.10;;;;;;;10.94;100.00;102276.28;5012464;28;20432;-42
2022/08/06 01:54:59;;;;;;;5.33;4.93;;;;;;;10.89;100.00;102271.44;5012259;28;20444;-42
2022/08/06 01:57:29;;;;;;;5.20;4.80;;;;;;;10.87;100.00;102277.94;5012642;28;20464;-42
2022/08/06 02:00:18;;;;;;;4.93;4.63;;;;;;;10.84;100.00;102275.59;5012022;28;20971;-42
2022/08/06 02:02:55;;;;;;;4.93;4.63;;;;;;;10.79;100.00;102273.41;5012117;28;20429;-41
2022/08/06 02:05:25;;;;;;;5.10;4.80;;;;;;;10.79;100.00;102275.22;5012279;28;20425;-41
2022/08/06 02:08:01;;;;;;;5.83;5.50;;;;;;;10.76;100.00;102286.22;5011982;28;20510;-44
2022/08/06 02:10:50;;;;;;;4.97;4.67;;;;;;;10.74;100.00;102288.22;5006339;28;20953;-41
2022/08/06 02:13:21;;;;;;;6.17;5.30;;;;;;;10.73;100.00;102281.19;5003664;28;20938;-44
2022/08/06 02:15:53;;;;;;;5.03;4.63;;;;;;;10.72;100.00;102292.91;5012093;28;20461;-41
2022/08/06 02:18:30;;;;;;;5.50;5.20;;;;;;;10.68;100.00;102295.03;5011589;28;21175;-41
2022/08/06 02:21:04;;;;;;;5.20;4.80;;;;;;;10.69;100.00;102290.53;5012451;28;20483;-42
2022/08/06 02:23:48;;;;;;;4.50;4.30;;;;;;;10.67;100.00;102293.34;5011791;28;20447;-42
2022/08/06 02:26:18;;;;;;;5.30;5.00;;;;;;;10.66;100.00;102289.03;5012070;28;21134;-45
2022/08/06 02:28:48;;;;;;;4.63;4.33;;;;;;;10.70;100.00;102292.19;5011404;28;21016;-42
2022/08/06 02:31:18;;;;;;;5.10;4.90;;;;;;;10.70;100.00;102289.53;5012007;28;20516;-43
2022/08/06 02:33:50;;;;;;;6.07;5.03;;;;;;;10.71;100.00;102293.88;5011573;28;20437;-42
2022/08/06 02:36:46;;;;;;;5.07;4.67;;;;;;;10.73;100.00;102292.72;5003761;28;20449;-44
2022/08/06 02:39:22;;;;;;;5.03;4.63;;;;;;;10.74;100.00;102294.41;5011342;28;20481;-40
2022/08/06 02:42:12;;;;;;;5.03;4.73;;;;;;;10.77;100.00;102283.41;5011860;28;20926;-42
2022/08/06 02:45:00;;;;;;;5.50;5.10;;;;;;;10.81;100.00;102302.59;5011874;28;20490;-45
2022/08/06 02:47:36;;;;;;;4.73;4.53;;;;;;;10.83;100.00;102298.78;5011866;28;20473;-41
2022/08/06 02:50:30;;;;;;;5.30;5.00;;;;;;;10.88;100.00;102303.63;5011587;28;20823;-43
2022/08/06 02:53:07;;;;;;;5.17;4.87;;;;;;;10.91;100.00;102303.31;5011475;28;20437;-41
2022/08/06 02:55:56;;;;;;;4.63;4.33;;;;;;;10.90;100.00;102304.31;5011899;28;20485;-41
2022/08/06 02:58:32;;;;;;;5.27;5.07;;;;;;;10.89;100.00;102307.97;5011198;28;20475;-43
2022/08/06 03:01:09;;;;;;;4.50;4.20;;;;;;;10.84;100.00;102305.78;5014876;28;21100;-42
2022/08/06 03:03:40;;;;;;;4.80;4.50;;;;;;;10.84;100.00;102315.63;5015417;28;20440;-42
2022/08/06 03:06:25;;;;;;;5.23;4.83;;;;;;;10.82;100.00;102313.09;5015559;28;20540;-42
2022/08/06 03:08:56;;;;;;;4.80;4.60;;;;;;;10.82;100.00;102318.44;5015275;28;20619;-41
2022/08/06 03:11:27;;;;;;;6.03;5.50;;;;;;;10.82;100.00;102322.94;5015411;28;20478;-43
2022/08/06 03:13:59;;;;;;;5.53;5.00;;;;;;;10.79;100.00;102323.25;5015067;28;20864;-43
2022/08/06 03:16:30;;;;;;;4.67;4.47;;;;;;;10.76;100.00;102320.91;5015391;28;20453;-41
2022/08/06 03:19:05;;;;;;;4.67;4.27;;;;;;;10.73;100.00;102321.22;5014771;28;20464;-43
2022/08/06 03:21:54;;;;;;;4.50;4.20;;;;;;;10.69;100.00;102317.22;5015071;28;20954;-41
2022/08/06 03:24:25;;;;;;;4.90;4.70;;;;;;;10.65;100.00;102315.84;5015052;28;20441;-41
2022/08/06 03:26:56;;;;;;;4.80;4.43;;;;;;;10.63;100.00;102321.38;5015196;28;20496;-41
2022/08/06 03:29:26;;;;;;;4.70;4.50;;;;;;;10.60;100.00;102320.84;5014703;28;20472;-43
2022/08/06 03:31:54;;;;;;;5.23;4.83;;;;;;;10.58;100.00;102321.00;5015016;28;20439;-44
2022/08/06 03:34:43;;;;;;;5.63;5.17;;;;;;;10.57;100.00;102326.50;5011694;28;20564;-41
2022/08/06 03:37:11;;;;;;;5.73;5.20;;;;;;;10.53;100.00;102329.47;5010656;28;20445;-42
2022/08/06 03:39:45;;;;;;;4.77;4.47;;;;;;;10.53;100.00;102332.16;5014488;28;20481;-41
2022/08/06 03:42:20;;;;;;;4.73;4.43;;;;;;;10.52;100.00;102335.78;5014716;28;20786;-42
2022/08/06 03:44:59;;;;;;;5.73;5.23;;;;;;;10.51;100.00;102334.09;5014831;28;20854;-42
2022/08/06 03:47:33;;;;;;;5.03;4.63;;;;;;;10.53;100.00;102334.81;5014491;28;20475;-43
2022/08/06 03:50:29;;;;;;;5.20;4.80;;;;;;;10.52;100.00;102338.47;5014687;28;20453;-41
2022/08/06 03:53:02;;;;;;;6.10;4.80;;;;;;;10.52;100.00;102343.78;5014494;28;20802;-41
2022/08/06 03:55:33;;;;;;;4.80;4.60;;;;;;;10.54;100.00;102343.66;5014434;28;20520;-41
2022/08/06 03:58:08;;;;;;;6.90;5.30;;;;;;;10.56;100.00;102339.00;5014294;28;20461;-41
2022/08/06 04:00:42;;;;;;;5.93;5.50;;;;;;;10.60;100.00;102344.84;5014512;28;20481;-41
2022/08/06 04:03:13;;;;;;;5.10;4.80;;;;;;;10.63;100.00;102344.53;5014142;28;20440;-41
2022/08/06 04:05:43;;;;;;;5.50;5.13;;;;;;;10.67;100.00;102352.06;5014184;28;20453;-40
2022/08/06 04:08:16;;;;;;;6.37;5.03;;;;;;;10.72;100.00;102357.75;5013742;28;20998;-41
2022/08/06 04:10:48;;;;;;;11.50;5.23;;;;;;;10.78;100.00;102356.31;5014349;28;20433;-44
2022/08/06 04:13:26;;;;;;;5.23;4.77;;;;;;;10.87;100.00;102358.81;5014043;28;20437;-43
2022/08/06 04:16:15;;;;;;;5.53;5.23;;;;;;;10.94;100.00;102349.19;5014061;28;20453;-41
2022/08/06 04:19:02;;;;;;;4.60;4.40;;;;;;;11.03;100.00;102355.41;5013660;28;20465;-41
2022/08/06 04:21:31;;;;;;;5.23;5.03;;;;;;;11.11;100.00;102355.44;5013947;28;20473;-42
2022/08/06 04:24:19;;;;;;;5.70;5.30;;;;;;;11.20;100.00;102364.34;5014133;28;20437;-41
2022/08/06 04:26:53;;;;;;;4.87;4.67;;;;;;;11.25;100.00;102357.50;5013909;28;20453;-43
2022/08/06 04:29:22;;;;;;;5.03;4.73;;;;;;;11.30;100.00;102359.69;5013777;28;20460;-43
2022/08/06 04:31:52;;;;;;;4.70;4.50;;;;;;;11.38;100.00;102357.06;5013982;28;20433;-44
2022/08/06 04:34:43;;;;;;;5.03;4.60;;;;;;;11.49;100.00;102362.09;5010639;28;20434;-42
2022/08/06 04:37:34;;;;;;;6.60;5.00;;;;;;;11.71;100.00;102360.66;5012313;28;20457;-43
2022/08/06 04:40:09;;;;;;;5.30;5.00;;;;;;;11.84;100.00;102363.66;5013572;28;20580;-45
2022/08/06 04:42:42;;;;;;;5.70;5.10;;;;;;;11.96;100.00;102362.34;5013668;28;20797;-42
2022/08/06 04:45:11;;;;;;;4.90;4.60;;;;;;;12.05;100.00;102367.53;5013617;28;20434;-43
2022/08/06 04:48:00;;;;;;;6.03;4.97;;;;;;;12.17;100.00;102371.56;5013340;28;20469;-44
2022/08/06 04:50:30;;;;;;;5.93;5.50;;;;;;;12.31;100.00;102367.34;5013789;28;20429;-42
2022/08/06 04:53:08;;;;;;;6.17;4.93;;;;;;;12.59;100.00;102370.50;5013404;28;20439;-41
2022/08/06 04:55:36;;;;;;;5.13;4.83;;;;;;;13.46;100.00;102375.75;5013449;28;20433;-46
2022/08/06 04:58:06;;;;;;;5.20;4.90;;;;;;;14.23;100.00;102376.53;5012915;28;20468;-41
2022/08/06 05:00:42;;;;;;;5.27;4.77;;;;;;;15.66;100.00;102381.50;5013506;28;21108;-42
2022/08/06 05:03:28;;;;;;;4.00;3.70;;;;;;;17.28;100.00;102377.59;5013269;28;20447;-44
2022/08/06 05:06:20;;;;;;;4.83;4.63;;;;;;;18.79;100.00;102377.81;5013404;28;20457;-43
2022/08/06 05:08:52;;;;;;;4.30;3.90;;;;;;;19.92;92.08;102382.56;5013054;28;20472;-44
2022/08/06 05:11:25;;;;;;;3.97;3.73;;;;;;;21.04;84.06;102385.13;5013346;28;20440;-42
2022/08/06 05:13:55;;;;;;;3.93;3.50;;;;;;;21.97;75.90;102381.00;5012963;28;20447;-42
2022/08/06 05:16:26;;;;;;;4.13;3.93;;;;;;;22.77;70.01;102384.03;5013002;28;20842;-41
2022/08/06 05:18:58;;;;;;;4.10;3.80;;;;;;;23.59;66.97;102385.53;5012446;28;20821;-43
2022/08/06 05:21:48;;;;;;;3.37;3.17;;;;;;;24.33;62.06;102401.84;5012772;28;20480;-42
2022/08/06 05:24:37;;;;;;;3.67;3.10;;;;;;;24.87;59.32;102392.06;5012858;28;20978;-43
2022/08/06 05:27:25;;;;;;;3.33;2.90;;;;;;;25.53;55.99;102394.59;5012812;28;20965;-42
2022/08/06 05:30:13;;;;;;;3.23;2.93;;;;;;;26.01;49.25;102398.34;5012878;28;20433;-42
2022/08/06 05:32:41;;;;;;;2.90;2.47;;;;;;;26.27;52.91;102400.22;5012778;28;20429;-44
2022/08/06 05:35:12;;;;;;;3.43;3.13;;;;;;;26.26;51.02;102407.59;5004879;28;20976;-46
2022/08/06 05:37:45;;;;;;;3.40;2.60;;;;;;;26.66;47.60;102403.53;4973210;28;20530;-44
2022/08/06 05:40:35;;;;;;;2.90;2.70;;;;;;;27.07;49.17;102397.22;4973591;28;20478;-45
2022/08/06 05:43:23;;;;;;;5.93;2.73;;;;;;;27.21;48.38;102411.25;4973721;28;20440;-44
2022/08/06 05:46:13;;;;;;;2.60;2.40;;;;;;;27.29;46.15;102416.22;4973489;28;20460;-46
2022/08/06 05:48:43;;;;;;;3.20;2.77;;;;;;;27.44;45.48;102417.13;4972994;28;20469;-44
2022/08/06 05:51:26;;;;;;;2.67;2.47;;;;;;;27.67;46.63;102428.69;4973610;28;20541;-43
2022/08/06 05:54:18;;;;;;;5.47;3.17;;;;;;;28.01;43.87;102418.91;4973435;28;20230;-47
2022/08/06 05:56:51;;;;;;;4.40;2.67;;;;;;;28.50;44.79;102428.25;4973368;28;20449;-44
2022/08/06 05:59:24;;;;;;;2.53;2.33;;;;;;;29.01;43.99;102429.00;4973209;28;20465;-45
2022/08/06 06:02:07;;;;;;;2.70;2.50;;;;;;;29.25;42.38;102425.66;4973212;28;20222;-44
2022/08/06 06:04:36;;;;;;;2.67;2.47;;;;;;;29.58;38.34;102427.69;4973359;28;20258;-43
2022/08/06 06:07:13;;;;;;;2.63;2.40;;;;;;;29.56;41.29;102433.50;4973356;28;20305;-44
2022/08/06 06:10:02;;;;;;;2.53;2.10;;;;;;;29.76;41.16;102431.72;4972709;28;20231;-44
2022/08/06 06:12:34;;;;;;;2.40;2.20;;;;;;;29.93;35.55;102441.25;4973062;28;20199;-43
2022/08/06 06:15:03;;;;;;;2.50;2.20;;;;;;;30.02;38.33;102435.97;4973412;28;20576;-46
2022/08/06 06:18:10;;;;;;;2.73;2.60;;;;;;;30.05;35.36;102436.22;4972868;28;20221;-46
2022/08/06 06:21:05;;;;;;;2.30;2.13;;;;;;;30.10;38.29;102441.69;4972860;28;20229;-44
2022/08/06 06:23:56;;;;;;;2.50;1.90;;;;;;;30.30;38.85;102445.38;4973168;28;20203;-44
2022/08/06 06:26:32;;;;;;;3.03;2.37;;;;;;;30.21;36.41;102445.19;4972964;28;20246;-43
2022/08/06 06:29:09;;;;;;;3.57;1.90;;;;;;;30.26;33.81;102449.84;4972726;28;20607;-43
2022/08/06 06:31:45;;;;;;;2.60;2.10;;;;;;;30.30;35.42;102450.88;4973024;28;20222;-45
2022/08/06 06:34:44;;;;;;;2.97;2.22;;;;;;;30.27;37.29;102451.47;4992062;28;20208;-45
2022/08/06 06:37:19;;;;;;;3.37;2.10;;;;;;;30.21;31.75;102447.09;5011883;28;20213;-47
2022/08/06 06:40:02;;;;;;;2.40;1.70;;;;;;;29.64;37.03;102454.88;5015821;28;20228;-44
2022/08/06 06:42:35;;;;;;;2.42;2.15;;;;;;;29.40;33.89;102455.81;5015735;28;20220;-45
2022/08/06 06:45:13;;;;;;;2.70;2.20;;;;;;;28.84;33.19;102458.72;5016089;28;20201;-48
2022/08/06 06:48:04;;;;;;;3.93;2.67;;;;;;;28.02;34.82;102458.94;5015623;28;20236;-43
2022/08/06 06:50:39;;;;;;;4.43;2.93;;;;;;;27.90;37.18;102455.59;5015848;28;20200;-44
2022/08/06 06:53:08;;;;;;;2.90;2.07;;;;;;;27.78;38.14;102455.03;5015913;28;20193;-46
2022/08/06 06:55:41;;;;;;;3.87;2.70;;;;;;;27.68;36.31;102458.59;5015825;28;20201;-46
2022/08/06 06:58:28;;;;;;;3.20;2.57;;;;;;;27.70;36.78;102466.53;5015415;28;20252;-43
2022/08/06 07:01:02;;;;;;;3.10;2.67;;;;;;;27.75;39.04;102472.03;5034815;22;20245;-46
2022/08/06 07:03:50;;;;;;;2.90;2.70;;;;;;;27.47;37.69;102467.84;4990052;28;20186;-49
2022/08/06 07:06:19;;;;;;;3.53;2.80;;;;;;;26.67;37.66;102471.66;4997547;28;20202;-46
2022/08/06 07:09:00;;;;;;;4.27;3.17;;;;;;;26.44;38.55;102473.94;4996715;28;20226;-45
2022/08/06 07:11:45;;;;;;;4.20;3.00;;;;;;;24.77;40.63;102491.78;4997006;28;20769;-47
2022/08/06 07:14:32;;;;;;;3.40;3.20;;;;;;;24.06;41.69;102486.13;4997030;28;20198;-45
2022/08/06 07:17:04;;;;;;;4.50;3.53;;;;;;;24.01;42.40;102491.50;4996473;28;20981;-46
2022/08/06 07:19:54;;;;;;;4.13;3.83;;;;;;;24.01;43.46;102496.94;4994763;28;20469;-45
2022/08/06 07:22:24;;;;;;;3.73;3.43;;;;;;;24.03;43.88;102494.78;4996039;28;20520;-45
2022/08/06 07:24:57;;;;;;;3.93;3.63;;;;;;;23.79;41.87;102504.13;4996610;28;20440;-46
2022/08/06 07:27:31;;;;;;;4.07;3.73;;;;;;;24.06;41.35;102495.13;4996477;28;20468;-45
2022/08/06 07:30:19;;;;;;;5.53;4.70;;;;;;;23.31;42.48;102496.25;4995822;28;20454;-43
2022/08/06 07:32:53;;;;;;;5.30;4.80;;;;;;;22.91;45.74;102505.16;4996517;28;20463;-43
2022/08/06 07:35:21;;;;;;;4.87;4.50;;;;;;;23.46;43.51;102510.25;5004260;28;20504;-47
2022/08/06 07:37:56;;;;;;;5.20;4.70;;;;;;;23.23;43.14;102508.34;5015762;28;20929;-44
2022/08/06 07:40:27;;;;;;;9.37;5.03;;;;;;;23.38;43.03;102505.13;5015905;28;20432;-45
2022/08/06 07:43:02;;;;;;;5.70;5.20;;;;;;;23.06;42.90;102515.56;5015941;28;20554;-43
2022/08/06 07:45:38;;;;;;;5.57;5.17;;;;;;;23.04;43.33;102504.09;5005271;28;20453;-47
2022/08/06 07:48:28;;;;;;;6.00;5.50;;;;;;;22.99;43.46;102510.25;5012092;28;20456;-44
2022/08/06 07:51:02;;;;;;;5.40;5.10;;;;;;;22.48;43.81;102513.59;5015000;28;20449;-45
2022/08/06 07:53:32;;;;;;;5.80;5.40;;;;;;;22.12;45.61;102516.41;5014607;28;20432;-44
2022/08/06 07:56:20;;;;;;;7.47;6.50;;;;;;;21.47;46.69;102516.13;5015188;28;20428;-44
2022/08/06 07:58:49;;;;;;;6.17;5.73;;;;;;;21.39;48.86;102523.75;5014527;28;20527;-43
2022/08/06 08:01:18;;;;;;;7.97;5.70;;;;;;;21.68;47.78;102519.47;5014553;28;20464;-47
2022/08/06 08:06:53;;;;;;;7.23;6.37;;;;;;;21.82;47.70;102529.09;5014927;28;20436;-45
2022/08/06 08:09:24;;;;;;;6.37;5.93;;;;;;;21.44;47.79;102519.31;5014338;28;20461;-47
2022/08/06 08:12:12;;;;;;;6.90;6.33;;;;;;;20.59;51.09;102533.63;5014567;28;20464;-46
2022/08/06 08:15:02;;;;;;;7.10;6.50;;;;;;;20.41;50.17;102528.13;5014713;28;20436;-44
2022/08/06 08:17:30;;;;;;;6.80;6.20;;;;;;;21.21;49.33;102531.88;5014414;28;20432;-47
2022/08/06 08:20:06;;;;;;;6.83;6.20;;;;;;;21.34;47.95;102527.16;5013276;28;20473;-45
2022/08/06 08:22:41;;;;;;;7.83;7.33;;;;;;;21.32;50.30;102539.28;5012869;28;20480;-45
2022/08/06 08:25:17;;;;;;;8.40;7.60;;;;;;;21.15;48.97;102538.19;5012135;28;20909;-44
2022/08/06 08:28:05;;;;;;;8.10;7.30;;;;;;;21.26;49.73;102541.03;5013237;28;20456;-45
2022/08/06 08:30:39;;;;;;;7.63;6.93;;;;;;;20.45;46.16;102545.63;5012571;28;20486;-48
2022/08/06 08:33:07;;;;;;;7.43;6.83;;;;;;;20.53;49.05;102550.75;5013274;28;20432;-44
2022/08/06 08:35:44;;;;;;;7.97;7.27;;;;;;;20.50;47.67;102550.38;5005722;28;20424;-49
2022/08/06 08:38:27;;;;;;;6.37;5.97;;;;;;;20.80;45.25;102540.56;5013363;28;20865;-44
2022/08/06 08:40:59;;;;;;;7.47;6.87;;;;;;;21.45;46.60;102536.41;5013394;28;20457;-43
2022/08/06 08:43:34;;;;;;;8.33;7.57;;;;;;;21.63;44.41;102546.44;5013612;28;20483;-45
2022/08/06 08:46:23;;;;;;;7.00;6.40;;;;;;;21.98;44.58;102542.13;5006194;28;20445;-44
2022/08/06 08:49:01;;;;;;;7.73;7.13;;;;;;;22.16;44.92;102547.47;4993466;28;20473;-42
2022/08/06 08:51:34;;;;;;;7.60;7.00;;;;;;;21.63;44.38;102546.44;4993697;28;20446;-46
2022/08/06 08:54:10;;;;;;;7.80;7.20;;;;;;;21.66;45.26;102551.44;4993440;28;20444;-44
2022/08/06 08:56:45;;;;;;;8.60;7.47;;;;;;;22.20;45.03;102545.97;4993215;28;20444;-48
2022/08/06 08:59:33;;;;;;;7.37;6.67;;;;;;;21.82;44.23;102561.69;4993117;28;20465;-44
2022/08/06 09:02:23;;;;;;;7.17;6.57;;;;;;;21.05;46.32;102560.38;4992763;28;20477;-44
2022/08/06 09:04:52;;;;;;;7.93;7.33;;;;;;;21.45;46.81;102560.84;4993487;28;20473;-44
2022/08/06 09:07:21;;;;;;;8.17;7.43;;;;;;;21.64;45.44;102564.41;4993572;28;20433;-47
2022/08/06 09:10:03;;;;;;;8.60;8.00;;;;;;;21.82;46.94;102556.28;4992714;28;20489;-44
2022/08/06 09:12:32;;;;;;;9.43;7.57;;;;;;;22.09;45.56;102559.50;4993391;28;20449;-46
2022/08/06 09:15:12;;;;;;;8.23;7.47;;;;;;;22.52;44.56;102560.97;4993525;28;20772;-45
2022/08/06 09:17:41;;;;;;;7.60;7.03;;;;;;;22.21;43.62;102547.66;4992647;28;20457;-47
2022/08/06 09:20:29;;;;;;;7.00;6.07;;;;;;;21.57;44.03;102561.75;4993725;28;20779;-45
2022/08/06 09:23:00;;;;;;;6.90;6.40;;;;;;;21.43;44.25;102569.22;4993389;28;20998;-48
2022/08/06 09:25:41;;;;;;;7.30;6.60;;;;;;;21.76;44.54;102559.91;4993538;28;20999;-47
2022/08/06 09:28:34;;;;;;;6.63;6.07;;;;;;;22.56;41.56;102558.63;4992374;28;20476;-45
2022/08/06 09:31:05;;;;;;;7.10;6.50;;;;;;;22.41;42.70;102560.94;4992996;28;20547;-45
2022/08/06 09:33:55;;;;;;;7.43;6.83;;;;;;;22.49;42.88;102557.91;4996875;28;20437;-44
2022/08/06 09:36:44;;;;;;;7.73;6.30;;;;;;;23.29;41.99;102563.75;4984576;28;20421;-50
2022/08/06 09:39:14;;;;;;;7.23;6.53;;;;;;;22.86;42.88;102574.94;4991230;28;20461;-47
2022/08/06 09:41:52;;;;;;;6.40;5.20;;;;;;;23.11;41.75;102567.41;4990719;28;20476;-48
2022/08/06 09:44:20;;;;;;;5.80;5.50;;;;;;;23.43;40.70;102573.34;4989503;28;20469;-44
2022/08/06 09:47:20;;;;;;;6.33;5.30;;;;;;;22.90;42.65;102576.13;4968005;28;20529;-46
2022/08/06 09:49:48;;;;;;;8.17;7.47;;;;;;;22.22;43.40;102576.47;4989689;28;20942;-47
2022/08/06 09:52:27;;;;;;;7.47;6.93;;;;;;;21.58;44.73;102587.88;4990958;28;20473;-48
2022/08/06 09:54:56;;;;;;;8.13;7.40;;;;;;;20.73;47.87;102600.25;4992483;28;20437;-46
2022/08/06 09:57:41;;;;;;;7.43;6.93;;;;;;;20.30;49.55;102599.25;4992001;28;20469;-45
2022/08/06 10:00:09;;;;;;;12.07;10.43;;;;;;;20.19;49.25;102603.44;4982871;28;20448;-45
2022/08/06 10:02:42;;;;;;;7.80;7.20;;;;;;;19.84;49.98;102608.38;4991058;28;20461;-48
2022/08/06 10:05:17;;;;;;;6.73;6.27;;;;;;;19.35;48.47;102610.72;4992261;28;20441;-48
2022/08/06 10:07:47;;;;;;;7.83;6.87;;;;;;;19.26;49.03;102607.38;4991881;28;20541;-47
2022/08/06 10:10:39;;;;;;;7.17;6.27;;;;;;;19.10;48.57;102606.97;4992137;28;20429;-46
2022/08/06 10:13:15;;;;;;;6.47;5.90;;;;;;;19.84;48.85;102604.81;4982914;28;20437;-45
2022/08/06 10:15:48;;;;;;;7.23;6.70;;;;;;;20.33;48.73;102605.09;4992180;28;20428;-46
2022/08/06 10:18:36;;;;;;;6.00;5.70;;;;;;;20.49;46.50;102595.59;4985865;28;20540;-46
2022/08/06 10:21:25;;;;;;;6.83;6.20;;;;;;;21.47;47.10;102602.19;4989663;28;20465;-50
2022/08/06 10:24:02;;;;;;;8.27;7.53;;;;;;;21.97;44.54;102600.22;4989911;28;20560;-46
2022/08/06 10:26:34;;;;;;;7.20;6.60;;;;;;;22.33;44.87;102611.03;4993790;28;20483;-43
2022/08/06 10:29:04;;;;;;;7.70;7.00;;;;;;;22.68;44.83;102604.91;4990276;28;20461;-46
2022/08/06 10:31:33;;;;;;;6.10;5.70;;;;;;;22.54;41.86;102605.09;4990528;28;20537;-46
2022/08/06 10:34:03;;;;;;;5.57;5.27;;;;;;;21.97;42.13;102611.06;4994793;28;20439;-45
2022/08/06 10:36:35;;;;;;;5.63;5.10;;;;;;;21.70;41.92;102602.38;4996884;28;20436;-47
2022/08/06 10:39:04;;;;;;;6.20;5.70;;;;;;;21.97;42.41;102603.75;4997418;28;20500;-43
2022/08/06 10:41:55;;;;;;;7.03;6.43;;;;;;;22.77;41.70;102598.94;4996223;28;20460;-45
2022/08/06 10:44:31;;;;;;;7.10;6.43;;;;;;;23.23;41.65;102600.06;4989768;28;20995;-44
2022/08/06 10:47:06;;;;;;;8.83;7.33;;;;;;;23.43;40.90;102592.41;4996562;28;20763;-45
2022/08/06 10:49:35;;;;;;;6.37;5.97;;;;;;;23.37;41.56;102593.31;4993606;28;20481;-44
2022/08/06 10:52:23;;;;;;;8.07;7.00;;;;;;;22.76;42.85;102585.56;4987921;28;20458;-49
2022/08/06 10:54:52;;;;;;;8.20;7.40;;;;;;;22.57;44.28;102593.75;4990359;28;20796;-45
2022/08/06 10:57:22;;;;;;;6.40;6.00;;;;;;;23.06;42.90;102578.16;4988453;28;21209;-44
2022/08/06 11:00:06;;;;;;;9.03;6.90;;;;;;;23.56;42.90;102586.72;4991974;28;20504;-45
2022/08/06 11:02:42;;;;;;;6.93;5.47;;;;;;;23.79;39.95;102589.41;4989294;28;20852;-46
2022/08/06 11:05:27;;;;;;;5.63;5.27;;;;;;;23.70;39.84;102585.41;4989584;28;20437;-45
2022/08/06 11:08:30;;;;;;;6.20;5.70;;;;;;;23.32;41.77;102580.44;4991143;28;20501;-48
2022/08/06 11:11:31;;;;;;;7.50;6.80;;;;;;;23.36;41.58;102589.75;4991216;28;20454;-48
2022/08/06 11:14:10;;;;;;;6.13;5.63;;;;;;;21.91;41.17;102593.81;4982178;28;20434;-46
2022/08/06 11:16:55;;;;;;;6.77;6.27;;;;;;;21.83;46.99;102598.69;4990417;28;20425;-44
2022/08/06 11:19:39;;;;;;;7.80;7.00;;;;;;;21.83;46.36;102601.41;4990984;28;20468;-45
2022/08/06 11:22:34;;;;;;;7.97;7.20;;;;;;;22.44;47.08;102590.38;4987382;28;20449;-46
2022/08/06 11:25:03;;;;;;;8.67;7.27;;;;;;;22.86;43.35;102583.09;4993842;28;20469;-45
2022/08/06 11:27:52;;;;;;;7.50;6.80;;;;;;;23.50;42.65;102584.94;4994915;28;20792;-45
2022/08/06 11:30:38;;;;;;;7.67;6.67;;;;;;;23.35;43.12;102584.56;4994535;28;20433;-47
2022/08/06 11:33:06;;;;;;;6.97;6.57;;;;;;;23.80;43.80;102592.97;4991956;28;20445;-46
2022/08/06 11:35:46;;;;;;;6.73;5.90;;;;;;;23.79;42.23;102591.28;4997581;28;20517;-42
2022/08/06 11:38:57;;;;;;;5.97;5.50;;;;;;;23.95;40.56;102593.28;4994679;28;20457;-45
2022/08/06 11:41:48;;;;;;;6.70;6.30;;;;;;;24.12;41.05;102592.31;4988456;28;20540;-45
2022/08/06 11:44:26;;;;;;;6.80;6.20;;;;;;;24.17;40.55;102586.97;4991511;28;20523;-45
2022/08/06 11:47:12;;;;;;;6.43;5.80;;;;;;;23.40;41.27;102590.16;4994643;28;20425;-48
2022/08/06 11:49:42;;;;;;;6.80;6.27;;;;;;;22.77;41.13;102582.59;4994374;28;20461;-44
2022/08/06 11:52:41;;;;;;;6.70;6.10;;;;;;;22.77;43.90;102593.47;4983417;28;21037;-45
2022/08/06 11:55:13;;;;;;;9.93;6.27;;;;;;;22.22;44.90;102594.69;4994720;28;20422;-43
2022/08/06 11:57:50;;;;;;;6.43;6.03;;;;;;;22.83;44.62;102603.44;4994355;28;20472;-44
2022/08/06 12:00:21;;;;;;;6.30;5.70;;;;;;;23.02;44.91;102605.03;4994114;28;20808;-47
2022/08/06 12:03:08;;;;;;;6.20;5.70;;;;;;;23.03;44.12;102605.81;4994281;28;20476;-45
2022/08/06 12:05:46;;;;;;;7.30;5.97;;;;;;;21.87;45.14;102611.56;4994667;28;21005;-45
2022/08/06 12:08:27;;;;;;;6.10;5.37;;;;;;;21.56;45.60;102608.16;4994237;28;20465;-46
2022/08/06 12:11:32;;;;;;;7.03;6.40;;;;;;;21.12;47.62;102612.72;4994244;28;20512;-45
2022/08/06 12:14:04;;;;;;;6.33;5.93;;;;;;;21.65;49.48;102612.25;4993892;28;20516;-46
2022/08/06 12:16:52;;;;;;;5.97;5.53;;;;;;;22.54;46.57;102588.78;4986980;28;20939;-45